Time;durP1;ratioP1;P1;durP2;ratioP2;P2;SDS_P1;SDS_P2;PMS_P1;PMS_P2;Temp;Humidity;BMP_temperature;BMP_pressure;BME280_temperature;BME280_humidity;BME280_pressure;Samples;Min_cycle;Max_cycle;Signal;HPM_P1;HPM_P2
2021/01/09 00:00:29;;;;;;;45.25;24.23;;;1.00;99.90;;;;;;5009479;28;20054;-66
2021/01/09 00:02:55;;;;;;;40.58;22.83;;;1.00;99.90;;;;;;5008814;28;20141;-66
2021/01/09 00:05:21;;;;;;;50.92;26.65;;;1.00;99.90;;;;;;5027776;28;20072;-66
2021/01/09 00:07:48;;;;;;;63.17;29.83;;;0.90;99.90;;;;;;5007828;28;20053;-66
2021/01/09 00:10:16;;;;;;;60.92;29.40;;;0.80;99.90;;;;;;4988341;28;20112;-66
2021/01/09 00:12:42;;;;;;;67.68;30.00;;;0.60;99.90;;;;;;5009058;28;20134;-65
2021/01/09 00:15:10;;;;;;;67.75;31.13;;;0.50;99.90;;;;;;5009558;28;20046;-66
2021/01/09 00:17:37;;;;;;;48.00;24.27;;;0.40;99.90;;;;;;5009142;28;20077;-66
2021/01/09 00:20:14;;;;;;;48.15;24.90;;;0.40;99.90;;;;;;5008874;28;20127;-66
2021/01/09 00:22:41;;;;;;;56.65;29.50;;;0.40;99.90;;;;;;5008466;28;20468;-66
2021/01/09 00:25:11;;;;;;;63.05;30.20;;;0.30;99.90;;;;;;5007768;28;20041;-67
2021/01/09 00:27:39;;;;;;;54.03;27.98;;;0.20;99.90;;;;;;4990872;28;20374;-65
2021/01/09 00:30:07;;;;;;;57.70;27.73;;;0.20;99.90;;;;;;5006913;28;20042;-66
2021/01/09 00:32:34;;;;;;;49.38;27.38;;;0.10;99.90;;;;;;5009894;28;20054;-66
2021/01/09 00:35:02;;;;;;;50.15;26.48;;;0.10;99.90;;;;;;5004360;28;20060;-66
2021/01/09 00:37:29;;;;;;;57.63;26.75;;;0.10;99.90;;;;;;5007777;28;20061;-66
2021/01/09 00:39:56;;;;;;;51.80;26.13;;;0.00;99.90;;;;;;5007327;28;20064;-65
2021/01/09 00:42:22;;;;;;;47.80;25.73;;;-0.10;99.90;;;;;;4977476;28;20469;-66
2021/01/09 00:44:49;;;;;;;54.67;26.63;;;-0.20;99.90;;;;;;5009062;28;20486;-66
2021/01/09 00:47:16;;;;;;;51.85;26.75;;;-0.30;99.90;;;;;;5008817;28;20071;-66
2021/01/09 00:49:42;;;;;;;56.22;29.15;;;-0.30;99.90;;;;;;5008406;28;20064;-66
2021/01/09 00:52:09;;;;;;;57.38;27.40;;;-0.40;99.90;;;;;;5008498;28;20081;-66
2021/01/09 00:54:36;;;;;;;46.13;22.90;;;-0.40;99.90;;;;;;5008684;28;20133;-66
2021/01/09 00:57:03;;;;;;;47.45;24.55;;;-0.30;99.90;;;;;;5008820;28;20057;-66
2021/01/09 00:59:30;;;;;;;49.42;24.30;;;-0.40;99.90;;;;;;5008152;28;20037;-66
2021/01/09 01:01:57;;;;;;;62.95;27.40;;;-0.50;99.90;;;;;;5008410;28;20281;-65
2021/01/09 01:04:24;;;;;;;55.47;26.63;;;-0.60;99.90;;;;;;5007710;28;20129;-66
2021/01/09 01:06:51;;;;;;;61.53;28.92;;;-0.70;99.90;;;;;;5007408;28;20440;-66
2021/01/09 01:09:17;;;;;;;48.55;24.25;;;-0.70;99.90;;;;;;5007492;28;20065;-66
2021/01/09 01:11:44;;;;;;;51.33;26.40;;;-0.60;99.90;;;;;;5008312;28;20124;-66
2021/01/09 01:14:10;;;;;;;61.78;29.55;;;-0.50;99.90;;;;;;5008116;28;20046;-66
2021/01/09 01:16:37;;;;;;;59.22;29.08;;;-0.60;99.90;;;;;;5006024;28;20053;-66
2021/01/09 01:19:04;;;;;;;42.92;22.70;;;-0.50;99.90;;;;;;5007912;28;20042;-65
2021/01/09 01:21:34;;;;;;;34.13;18.45;;;-0.30;99.90;;;;;;5001183;28;20503;-66
2021/01/09 01:24:02;;;;;;;45.28;22.08;;;-0.30;99.90;;;;;;5008087;28;20526;-65
2021/01/09 01:26:29;;;;;;;44.50;23.42;;;-0.30;99.90;;;;;;5008178;28;20045;-66
2021/01/09 01:28:55;;;;;;;42.25;22.25;;;-0.30;99.90;;;;;;5006322;28;20050;-66
2021/01/09 01:31:23;;;;;;;50.58;25.08;;;-0.30;99.90;;;;;;5008005;28;20116;-65
2021/01/09 01:33:50;;;;;;;59.65;29.08;;;-0.40;99.90;;;;;;5007646;28;20074;-66
2021/01/09 01:36:17;;;;;;;47.95;24.27;;;-0.40;99.90;;;;;;5008022;28;20201;-66
2021/01/09 01:38:44;;;;;;;52.55;25.60;;;-0.30;99.90;;;;;;5007093;28;20092;-65
2021/01/09 01:41:10;;;;;;;38.70;19.88;;;-0.30;99.90;;;;;;5006158;28;20211;-65
2021/01/09 01:43:37;;;;;;;51.97;26.42;;;-0.20;99.90;;;;;;5005157;28;20116;-65
2021/01/09 01:46:08;;;;;;;56.13;25.45;;;-0.30;99.90;;;;;;5000873;28;20522;-66
2021/01/09 01:48:36;;;;;;;56.22;27.00;;;-0.10;99.90;;;;;;5007036;28;20057;-66
2021/01/09 01:51:04;;;;;;;68.32;28.90;;;-0.10;99.90;;;;;;5004439;28;20132;-65
2021/01/09 01:53:32;;;;;;;50.67;24.20;;;-0.10;99.90;;;;;;5007366;28;20046;-66
2021/01/09 01:55:58;;;;;;;52.97;26.98;;;0.00;99.90;;;;;;5004851;28;20070;-65
2021/01/09 01:58:25;;;;;;;55.33;28.15;;;0.00;99.90;;;;;;5006472;28;20085;-66
2021/01/09 02:00:51;;;;;;;59.00;28.77;;;0.00;99.90;;;;;;5007752;28;20133;-66
2021/01/09 02:03:20;;;;;;;63.88;30.42;;;0.00;99.90;;;;;;5006692;28;20038;-65
2021/01/09 02:06:00;;;;;;;57.00;26.27;;;0.00;99.90;;;;;;5018554;28;20058;-66
2021/01/09 02:09:06;;;;;;;64.50;29.08;;;0.00;99.90;;;;;;5007114;28;20058;-66
2021/01/09 02:11:41;;;;;;;51.75;24.60;;;-0.20;99.90;;;;;;4997450;28;20157;-65
2021/01/09 02:14:14;;;;;;;55.50;25.73;;;-0.20;99.90;;;;;;5005472;28;20392;-65
2021/01/09 02:16:42;;;;;;;45.72;23.80;;;-0.20;99.90;;;;;;5006956;28;20038;-66
2021/01/09 02:19:10;;;;;;;53.95;27.67;;;-0.30;99.90;;;;;;5008796;28;20045;-66
2021/01/09 02:21:45;;;;;;;58.28;26.90;;;-0.40;99.90;;;;;;5010350;28;20078;-66
2021/01/09 02:24:16;;;;;;;61.20;28.05;;;-0.40;99.90;;;;;;5007769;28;20042;-66
2021/01/09 02:26:43;;;;;;;62.42;29.50;;;-0.50;99.90;;;;;;5010840;28;20050;-66
2021/01/09 02:29:13;;;;;;;63.55;28.35;;;-0.60;99.90;;;;;;5010712;28;20145;-66
2021/01/09 02:32:00;;;;;;;61.67;27.10;;;-0.50;99.90;;;;;;5009402;28;20136;-66
2021/01/09 02:34:38;;;;;;;46.92;24.02;;;-0.60;99.90;;;;;;4994148;28;20105;-65
2021/01/09 02:37:05;;;;;;;35.30;19.67;;;-0.60;99.90;;;;;;5009101;28;20054;-67
2021/01/09 02:39:32;;;;;;;40.88;21.75;;;-0.50;99.90;;;;;;5007194;28;20543;-65
2021/01/09 02:41:58;;;;;;;39.20;20.73;;;-0.60;99.90;;;;;;5009437;28;20104;-66
2021/01/09 02:44:25;;;;;;;39.50;20.20;;;-0.60;99.90;;;;;;5010472;28;20475;-66
2021/01/09 02:46:51;;;;;;;48.38;23.42;;;-0.80;99.90;;;;;;5009818;28;20123;-66
2021/01/09 02:49:18;;;;;;;42.72;20.67;;;-0.90;99.90;;;;;;5011280;28;20054;-65
2021/01/09 02:51:44;;;;;;;43.80;20.05;;;-1.20;99.90;;;;;;5009902;28;20061;-65
2021/01/09 02:54:10;;;;;;;35.92;17.38;;;-1.40;99.90;;;;;;5008372;28;20077;-65
2021/01/09 02:56:37;;;;;;;34.25;18.13;;;-1.60;99.90;;;;;;5009207;28;20042;-65
2021/01/09 02:59:03;;;;;;;30.75;16.05;;;-1.70;99.90;;;;;;5008936;28;20132;-65
2021/01/09 03:01:30;;;;;;;31.15;16.48;;;-1.70;99.90;;;;;;5008910;28;20151;-65
2021/01/09 03:03:58;;;;;;;33.78;17.05;;;-1.80;99.90;;;;;;5010598;28;20050;-65
2021/01/09 03:06:25;;;;;;;33.50;17.00;;;-1.80;99.90;;;;;;5009022;28;20128;-64
2021/01/09 03:08:53;;;;;;;29.58;15.63;;;-1.90;99.90;;;;;;5008538;28;20042;-66
2021/01/09 03:11:21;;;;;;;26.33;13.90;;;-1.90;99.90;;;;;;4999398;28;20058;-67
2021/01/09 03:13:48;;;;;;;26.08;14.10;;;-1.90;99.90;;;;;;5010159;28;20066;-66
2021/01/09 03:16:14;;;;;;;30.52;14.77;;;-2.00;99.90;;;;;;4997212;28;20598;-66
2021/01/09 03:18:41;;;;;;;21.80;12.73;;;-2.10;99.90;;;;;;5009399;28;20128;-66
2021/01/09 03:21:08;;;;;;;23.10;12.98;;;-2.20;99.90;;;;;;5010533;28;20529;-67
2021/01/09 03:23:34;;;;;;;28.77;15.15;;;-2.30;99.90;;;;;;5009897;28;20184;-66
2021/01/09 03:26:02;;;;;;;32.97;16.45;;;-2.40;99.90;;;;;;5009617;28;20492;-66
2021/01/09 03:28:29;;;;;;;26.60;13.75;;;-2.50;99.90;;;;;;5009307;28;20483;-66
2021/01/09 03:30:55;;;;;;;30.38;14.40;;;-2.50;99.90;;;;;;5007785;28;20108;-66
2021/01/09 03:33:22;;;;;;;25.98;12.35;;;-2.60;99.90;;;;;;5009354;28;20046;-66
2021/01/09 03:35:48;;;;;;;29.10;14.32;;;-2.70;99.90;;;;;;5010305;28;20143;-66
2021/01/09 03:38:15;;;;;;;26.85;13.43;;;-2.90;99.90;;;;;;5009910;28;20153;-67
2021/01/09 03:40:41;;;;;;;27.98;14.48;;;-2.90;99.90;;;;;;5008097;28;20077;-66
2021/01/09 03:43:08;;;;;;;21.85;11.07;;;-3.00;99.90;;;;;;5010108;28;20475;-66
2021/01/09 03:45:34;;;;;;;25.92;12.70;;;-3.00;99.90;;;;;;5009509;28;20073;-66
2021/01/09 03:48:01;;;;;;;22.42;11.75;;;-3.00;99.90;;;;;;5009441;28;20061;-66
2021/01/09 03:50:28;;;;;;;21.95;11.43;;;-3.00;99.90;;;;;;5009310;28;20049;-67
2021/01/09 03:52:54;;;;;;;26.48;13.35;;;-3.10;99.90;;;;;;5009539;28;20053;-66
2021/01/09 03:55:21;;;;;;;31.63;15.10;;;-3.20;99.90;;;;;;4991161;28;20062;-67
2021/01/09 03:57:47;;;;;;;29.67;14.35;;;-3.30;99.90;;;;;;5009467;28;20129;-66
2021/01/09 04:00:14;;;;;;;37.42;17.13;;;-3.30;99.90;;;;;;5008465;28;20077;-66
2021/01/09 04:02:41;;;;;;;24.35;13.50;;;-3.10;99.90;;;;;;5005237;28;20050;-66
2021/01/09 04:05:08;;;;;;;25.52;12.93;;;-3.00;99.90;;;;;;5008657;28;20296;-66
2021/01/09 04:07:36;;;;;;;43.28;19.65;;;-2.90;99.90;;;;;;5008537;28;20054;-66
2021/01/09 04:10:04;;;;;;;34.97;17.30;;;-3.10;99.90;;;;;;5007440;28;20076;-67
2021/01/09 04:12:30;;;;;;;31.70;15.50;;;-3.00;99.90;;;;;;5008952;28;20050;-67
2021/01/09 04:14:57;;;;;;;24.40;13.07;;;-2.70;99.90;;;;;;5008448;28;20141;-67
2021/01/09 04:17:23;;;;;;;28.23;14.60;;;-2.50;99.90;;;;;;5008189;28;20134;-67
2021/01/09 04:19:49;;;;;;;26.92;14.85;;;-2.40;99.90;;;;;;5008504;28;20518;-66
2021/01/09 04:22:16;;;;;;;24.77;13.68;;;-2.30;99.90;;;;;;5007020;28;20104;-67
2021/01/09 04:24:42;;;;;;;25.50;13.40;;;-2.20;99.90;;;;;;5009517;28;20116;-66
2021/01/09 04:27:09;;;;;;;25.98;13.15;;;-2.00;99.90;;;;;;5008492;28;20054;-67
2021/01/09 04:29:36;;;;;;;20.42;11.45;;;-1.80;99.90;;;;;;5006759;28;20050;-66
2021/01/09 04:32:03;;;;;;;19.27;10.63;;;-1.70;99.90;;;;;;5008007;28;20042;-67
2021/01/09 04:34:30;;;;;;;19.60;11.07;;;-1.50;99.90;;;;;;5007854;28;20054;-67
2021/01/09 04:36:56;;;;;;;23.30;13.25;;;-1.40;99.90;;;;;;5007611;28;20050;-67
2021/01/09 04:39:23;;;;;;;23.55;12.05;;;-1.30;99.90;;;;;;5009117;28;20096;-67
2021/01/09 04:41:49;;;;;;;20.98;11.90;;;-1.30;99.90;;;;;;5007626;28;20099;-67
2021/01/09 04:44:16;;;;;;;24.40;13.70;;;-1.40;99.90;;;;;;5009377;28;20125;-66
2021/01/09 04:46:52;;;;;;;20.33;12.05;;;-1.30;99.90;;;;;;5007784;28;20112;-67
2021/01/09 04:49:22;;;;;;;26.05;13.45;;;-1.20;99.90;;;;;;5008821;28;20046;-67
2021/01/09 04:51:50;;;;;;;20.73;11.35;;;-1.30;99.90;;;;;;5005322;28;20133;-67
2021/01/09 04:54:21;;;;;;;21.42;11.75;;;-1.10;99.90;;;;;;5008851;28;20507;-67
2021/01/09 04:56:54;;;;;;;22.17;13.02;;;-1.10;99.90;;;;;;5007258;28;20050;-67
2021/01/09 04:59:21;;;;;;;;;;;-1.10;99.90;;;;;;5009406;28;20543;-67
2021/01/09 05:01:49;;;;;;;24.17;12.35;;;-1.20;99.90;;;;;;5005154;28;19937;-66
2021/01/09 05:04:17;;;;;;;21.83;11.43;;;-1.20;99.90;;;;;;5008409;28;20046;-67
2021/01/09 05:06:46;;;;;;;21.48;10.82;;;-1.20;99.90;;;;;;5007984;28;20261;-67
2021/01/09 05:09:15;;;;;;;16.92;10.05;;;-1.20;99.90;;;;;;5006468;28;20421;-67
2021/01/09 05:11:45;;;;;;;23.35;12.18;;;-1.10;99.90;;;;;;5005209;28;20085;-67
2021/01/09 05:14:12;;;;;;;21.80;12.45;;;-1.10;99.90;;;;;;5014134;28;20396;-67
2021/01/09 05:16:39;;;;;;;23.33;12.77;;;-1.20;99.90;;;;;;5010610;28;20049;-66
2021/01/09 05:19:07;;;;;;;25.60;12.63;;;-1.20;99.90;;;;;;5007396;28;20046;-66
2021/01/09 05:21:35;;;;;;;26.23;13.60;;;-1.20;99.90;;;;;;5005975;28;20483;-66
2021/01/09 05:24:04;;;;;;;22.67;13.38;;;-1.20;99.90;;;;;;5007665;28;20073;-67
2021/01/09 05:26:31;;;;;;;26.95;13.30;;;-1.10;99.90;;;;;;5006520;28;20563;-67
2021/01/09 05:28:59;;;;;;;22.77;12.93;;;-1.00;99.90;;;;;;5007374;28;20069;-67
2021/01/09 05:31:30;;;;;;;22.30;11.43;;;-0.90;99.90;;;;;;5007273;28;20104;-67
2021/01/09 05:33:57;;;;;;;22.70;12.48;;;-0.90;99.90;;;;;;5006479;28;20058;-67
2021/01/09 05:36:24;;;;;;;20.88;11.63;;;-0.80;99.90;;;;;;5008320;28;20120;-67
2021/01/09 05:38:51;;;;;;;24.08;12.50;;;-0.80;99.90;;;;;;4989791;28;20137;-66
2021/01/09 05:41:19;;;;;;;24.65;12.98;;;-0.70;99.90;;;;;;5008185;28;20076;-66
2021/01/09 05:43:59;;;;;;;23.48;12.52;;;-0.70;99.90;;;;;;5007981;28;20132;-67
2021/01/09 05:46:28;;;;;;;22.98;13.15;;;-0.70;99.90;;;;;;5000025;28;20060;-67
2021/01/09 05:48:54;;;;;;;22.77;13.48;;;-0.70;99.90;;;;;;5008894;28;20426;-67
2021/01/09 05:51:21;;;;;;;24.80;12.82;;;-0.80;99.90;;;;;;5008053;28;20128;-66
2021/01/09 05:53:48;;;;;;;19.10;10.82;;;-0.80;99.90;;;;;;5009869;28;20533;-67
2021/01/09 05:56:21;;;;;;;23.70;12.75;;;-0.70;99.90;;;;;;5011293;28;20120;-66
2021/01/09 05:58:52;;;;;;;20.23;10.23;;;-0.70;99.90;;;;;;5009482;28;20042;-67
2021/01/09 06:01:27;;;;;;;21.23;11.93;;;-0.70;99.90;;;;;;5009910;28;20125;-66
2021/01/09 06:03:59;;;;;;;17.17;10.35;;;-0.70;99.90;;;;;;5007683;28;20046;-67
2021/01/09 06:06:26;;;;;;;20.63;10.88;;;-0.60;99.90;;;;;;5011768;28;20046;-66
2021/01/09 06:09:10;;;;;;;24.95;12.75;;;-0.60;99.90;;;;;;5011386;28;20539;-66
2021/01/09 06:11:40;;;;;;;22.08;11.57;;;-0.50;99.90;;;;;;5010609;28;20042;-67
2021/01/09 06:14:08;;;;;;;18.40;10.27;;;-0.50;99.90;;;;;;5010304;28;20132;-67
2021/01/09 06:16:37;;;;;;;22.73;12.48;;;-0.40;99.90;;;;;;5010059;28;20086;-67
2021/01/09 06:19:04;;;;;;;20.00;10.57;;;-0.40;99.90;;;;;;4995089;28;20129;-66
2021/01/09 06:21:32;;;;;;;20.70;11.30;;;-0.40;99.90;;;;;;5011204;28;20475;-66
2021/01/09 06:24:01;;;;;;;21.27;11.40;;;-0.30;99.90;;;;;;5011008;28;20575;-66
2021/01/09 06:26:29;;;;;;;20.25;11.25;;;-0.30;99.90;;;;;;5009450;28;20056;-66
2021/01/09 06:28:58;;;;;;;20.63;11.30;;;-0.20;99.90;;;;;;5016492;28;20042;-66
2021/01/09 06:31:27;;;;;;;21.67;12.00;;;-0.30;99.90;;;;;;5002804;28;20041;-67
2021/01/09 06:34:01;;;;;;;24.58;13.65;;;-0.30;99.90;;;;;;5012664;28;20430;-67
2021/01/09 06:36:28;;;;;;;26.20;14.75;;;-0.50;99.90;;;;;;5010532;28;20061;-67
2021/01/09 06:38:57;;;;;;;20.90;12.35;;;-0.50;99.90;;;;;;5011226;28;20415;-67
2021/01/09 06:41:25;;;;;;;27.17;13.95;;;-0.50;99.90;;;;;;5010872;28;20053;-67
2021/01/09 06:43:54;;;;;;;21.23;12.77;;;-0.60;99.90;;;;;;5010744;28;20045;-67
2021/01/09 06:46:28;;;;;;;23.73;12.52;;;-0.60;99.90;;;;;;5003698;28;20360;-67
2021/01/09 06:48:54;;;;;;;24.13;12.27;;;-0.60;99.90;;;;;;5011010;28;20068;-67
2021/01/09 06:51:39;;;;;;;24.50;12.43;;;-0.60;99.90;;;;;;5008253;28;20175;-66
2021/01/09 06:54:15;;;;;;;24.80;13.13;;;-0.50;99.90;;;;;;5011783;28;20053;-66
2021/01/09 06:57:07;;;;;;;23.23;12.07;;;-0.50;99.90;;;;;;5009760;28;20058;-67
2021/01/09 06:59:38;;;;;;;21.77;12.02;;;-0.50;99.90;;;;;;5008414;28;20074;-67
2021/01/09 07:02:40;;;;;;;21.08;12.32;;;-0.40;99.90;;;;;;5009946;28;20042;-67
2021/01/09 07:05:18;;;;;;;24.17;12.77;;;-0.30;99.90;;;;;;4909440;29;20051;-67
2021/01/09 07:07:56;;;;;;;21.92;11.43;;;-0.30;99.90;;;;;;4998913;28;20100;-67
2021/01/09 07:10:28;;;;;;;22.73;11.55;;;-0.30;99.90;;;;;;5010186;28;20045;-67
2021/01/09 07:13:02;;;;;;;22.00;12.82;;;-0.20;99.90;;;;;;5011157;28;20077;-67
2021/01/09 07:15:33;;;;;;;20.60;11.70;;;-0.20;99.90;;;;;;5010529;28;20073;-67
2021/01/09 07:18:02;;;;;;;23.90;12.73;;;-0.20;99.90;;;;;;5010088;28;20050;-66
2021/01/09 07:20:36;;;;;;;25.52;14.48;;;-0.20;99.90;;;;;;5008232;28;20057;-66
2021/01/09 07:23:07;;;;;;;22.88;13.25;;;-0.30;99.90;;;;;;5006335;28;20053;-66
2021/01/09 07:25:39;;;;;;;22.20;11.70;;;-0.20;99.90;;;;;;5009483;28;20049;-66
2021/01/09 07:28:16;;;;;;;23.50;11.77;;;-0.20;99.90;;;;;;5010151;28;20077;-66
2021/01/09 07:30:44;;;;;;;22.80;11.80;;;-0.20;99.90;;;;;;5008212;28;20128;-67
2021/01/09 07:33:13;;;;;;;20.92;12.68;;;-0.20;99.90;;;;;;5009586;28;20081;-66
2021/01/09 07:35:44;;;;;;;23.17;12.18;;;-0.20;99.90;;;;;;5009810;28;20104;-67
2021/01/09 07:38:12;;;;;;;24.17;11.55;;;-0.20;99.90;;;;;;5008914;28;20050;-67
2021/01/09 07:40:51;;;;;;;22.40;12.40;;;-0.10;99.90;;;;;;4995475;28;20120;-67
2021/01/09 07:43:47;;;;;;;25.10;13.23;;;-0.10;99.90;;;;;;5010328;28;20204;-66
2021/01/09 07:46:29;;;;;;;26.58;13.52;;;-0.10;99.90;;;;;;5008615;28;20096;-67
2021/01/09 07:48:57;;;;;;;26.13;13.75;;;-0.20;99.90;;;;;;4991898;28;20315;-66
2021/01/09 07:51:46;;;;;;;23.83;12.80;;;-0.20;99.90;;;;;;5010594;28;20180;-66
2021/01/09 07:54:44;;;;;;;27.80;14.30;;;-0.20;99.90;;;;;;5009651;28;20073;-67
2021/01/09 07:57:22;;;;;;;27.20;15.00;;;-0.30;99.90;;;;;;5008996;28;20368;-67
2021/01/09 07:59:54;;;;;;;28.13;14.73;;;-0.30;99.90;;;;;;5008145;28;20053;-67
2021/01/09 08:02:25;;;;;;;28.58;15.48;;;-0.20;99.90;;;;;;5008129;28;20065;-67
2021/01/09 08:05:10;;;;;;;28.38;14.50;;;-0.30;99.90;;;;;;5009683;28;20088;-67
2021/01/09 08:07:41;;;;;;;29.58;15.52;;;-0.30;99.90;;;;;;5007818;28;20376;-67
2021/01/09 08:10:33;;;;;;;28.85;15.18;;;-0.20;99.90;;;;;;5009035;28;20046;-67
2021/01/09 08:13:02;;;;;;;28.95;15.50;;;-0.20;99.90;;;;;;4997133;28;20079;-67
2021/01/09 08:15:30;;;;;;;28.10;15.15;;;-0.10;99.90;;;;;;5006492;28;20096;-67
2021/01/09 08:18:05;;;;;;;25.67;14.05;;;-0.10;99.90;;;;;;5009733;28;20049;-67
2021/01/09 08:20:31;;;;;;;31.38;16.77;;;0.00;99.90;;;;;;5007184;28;20120;-67
2021/01/09 08:23:04;;;;;;;28.40;15.80;;;0.00;99.90;;;;;;5009331;28;20042;-67
2021/01/09 08:25:33;;;;;;;29.85;15.70;;;0.00;99.90;;;;;;5007670;28;20050;-67
2021/01/09 08:28:01;;;;;;;28.88;15.68;;;0.00;99.90;;;;;;5009540;28;20518;-67
2021/01/09 08:30:33;;;;;;;28.27;15.48;;;0.00;99.90;;;;;;5011996;28;20132;-67
2021/01/09 08:33:08;;;;;;;24.67;13.50;;;0.10;99.90;;;;;;5007233;28;20053;-67
2021/01/09 08:35:37;;;;;;;26.63;14.48;;;0.20;99.90;;;;;;5007306;28;20525;-67
2021/01/09 08:38:04;;;;;;;29.27;15.25;;;0.20;99.90;;;;;;5009237;28;20129;-67
2021/01/09 08:40:33;;;;;;;25.92;14.80;;;0.20;99.90;;;;;;5008254;28;20705;-67
2021/01/09 08:43:02;;;;;;;30.30;15.82;;;0.20;99.90;;;;;;5007536;28;20440;-67
2021/01/09 08:45:48;;;;;;;28.92;15.85;;;0.40;99.90;;;;;;5007840;28;20515;-67
2021/01/09 08:48:18;;;;;;;26.75;14.15;;;0.40;99.90;;;;;;5007228;28;20335;-67
2021/01/09 08:50:58;;;;;;;30.80;15.27;;;0.40;99.90;;;;;;5007330;28;20057;-67
2021/01/09 08:53:27;;;;;;;29.55;15.60;;;0.40;99.90;;;;;;5007301;28;20061;-67
2021/01/09 08:56:02;;;;;;;28.80;15.80;;;0.50;99.90;;;;;;5008188;28;20133;-67
2021/01/09 08:58:34;;;;;;;23.35;13.95;;;0.50;99.90;;;;;;5006771;28;20046;-67
2021/01/09 09:01:02;;;;;;;25.08;14.50;;;0.60;99.90;;;;;;5002053;28;20313;-67
2021/01/09 09:03:31;;;;;;;29.83;16.30;;;0.60;99.90;;;;;;4988285;28;20050;-67
2021/01/09 09:06:02;;;;;;;26.95;15.32;;;0.60;99.90;;;;;;5007988;28;20123;-67
2021/01/09 09:08:30;;;;;;;31.38;16.15;;;0.70;99.90;;;;;;5008307;28;20057;-66
2021/01/09 09:10:57;;;;;;;26.70;15.43;;;0.70;99.90;;;;;;5008032;28;20408;-67
2021/01/09 09:13:24;;;;;;;26.63;15.40;;;0.70;99.90;;;;;;5008496;28;20063;-67
2021/01/09 09:15:52;;;;;;;27.65;15.38;;;0.80;99.90;;;;;;5006473;28;20046;-67
2021/01/09 09:18:20;;;;;;;30.52;16.10;;;0.90;99.90;;;;;;5020935;28;20045;-67
2021/01/09 09:20:51;;;;;;;31.15;16.42;;;1.00;99.90;;;;;;5018581;28;20404;-67
2021/01/09 09:23:20;;;;;;;26.85;15.52;;;1.00;99.90;;;;;;4991151;28;20479;-67
2021/01/09 09:26:05;;;;;;;27.15;15.40;;;1.10;99.90;;;;;;5007544;28;20076;-67
2021/01/09 09:28:52;;;;;;;25.42;14.80;;;1.20;99.90;;;;;;4993875;28;20042;-67
2021/01/09 09:31:23;;;;;;;28.40;15.40;;;1.20;99.90;;;;;;5027117;28;20569;-67
2021/01/09 09:33:57;;;;;;;29.15;15.68;;;1.20;99.90;;;;;;5016783;28;20082;-66
2021/01/09 09:36:23;;;;;;;28.55;15.48;;;1.30;99.90;;;;;;4993723;28;20134;-66
2021/01/09 09:38:50;;;;;;;28.48;15.98;;;1.20;99.90;;;;;;5011223;28;20080;-67
2021/01/09 09:41:16;;;;;;;27.25;14.77;;;1.10;99.90;;;;;;4994576;28;20042;-67
2021/01/09 09:44:00;;;;;;;28.00;15.00;;;1.30;99.90;;;;;;5011948;28;20199;-66
2021/01/09 09:46:26;;;;;;;26.88;15.40;;;1.40;99.90;;;;;;5010178;28;20038;-66
2021/01/09 09:48:59;;;;;;;24.10;13.68;;;1.50;99.90;;;;;;5008076;28;20050;-67
2021/01/09 09:51:33;;;;;;;25.25;13.65;;;1.70;99.90;;;;;;5009466;28;20045;-67
2021/01/09 09:54:00;;;;;;;30.55;16.88;;;1.60;99.90;;;;;;5009743;28;20128;-66
2021/01/09 09:56:35;;;;;;;26.38;15.50;;;1.60;99.90;;;;;;5011875;28;20105;-66
2021/01/09 09:59:07;;;;;;;25.80;15.45;;;1.90;99.90;;;;;;5010764;28;20046;-66
2021/01/09 10:01:34;;;;;;;26.10;15.88;;;2.00;99.90;;;;;;5008307;28;20088;-66
2021/01/09 10:04:02;;;;;;;27.02;15.73;;;2.10;99.90;;;;;;5010306;28;20049;-67
2021/01/09 10:06:40;;;;;;;24.80;14.20;;;2.10;99.90;;;;;;5013324;28;20192;-66
2021/01/09 10:09:17;;;;;;;26.08;14.80;;;2.20;99.90;;;;;;5010128;28;20119;-67
2021/01/09 10:11:45;;;;;;;27.92;14.77;;;2.40;99.90;;;;;;5011560;28;20566;-66
2021/01/09 10:14:21;;;;;;;32.95;18.52;;;2.20;99.90;;;;;;4994417;28;20048;-66
2021/01/09 10:16:49;;;;;;;22.00;13.25;;;2.10;99.90;;;;;;4991896;28;20041;-66
2021/01/09 10:19:18;;;;;;;24.75;14.13;;;2.20;99.90;;;;;;5005006;28;20046;-66
2021/01/09 10:21:45;;;;;;;21.08;12.20;;;2.10;99.90;;;;;;5008191;28;20133;-66
2021/01/09 10:24:12;;;;;;;23.65;13.50;;;2.20;99.90;;;;;;4993408;28;20050;-67
2021/01/09 10:26:38;;;;;;;22.15;12.75;;;2.40;99.90;;;;;;5010863;28;20057;-66
2021/01/09 10:29:05;;;;;;;21.98;13.20;;;2.40;99.90;;;;;;5015262;28;20141;-66
2021/01/09 10:31:36;;;;;;;24.13;12.48;;;2.50;99.80;;;;;;5011295;28;20149;-66
2021/01/09 10:34:05;;;;;;;26.13;13.73;;;2.50;99.90;;;;;;5006933;28;20397;-67
2021/01/09 10:36:34;;;;;;;25.65;13.60;;;2.30;99.70;;;;;;5010443;28;20103;-67
2021/01/09 10:39:02;;;;;;;22.70;14.23;;;2.40;99.90;;;;;;5008365;28;20132;-67
2021/01/09 10:41:28;;;;;;;23.23;13.20;;;2.50;99.90;;;;;;5007178;28;20100;-66
2021/01/09 10:44:15;;;;;;;25.17;14.00;;;2.40;99.90;;;;;;5002071;28;20110;-66
2021/01/09 10:46:42;;;;;;;23.02;13.68;;;2.20;99.90;;;;;;5003336;28;20046;-66
2021/01/09 10:49:08;;;;;;;23.20;13.35;;;2.30;99.90;;;;;;5010641;28;20145;-66
2021/01/09 10:51:34;;;;;;;24.55;16.15;;;2.60;99.90;;;;;;5010347;28;20100;-66
2021/01/09 10:54:04;;;;;;;21.60;13.60;;;2.60;99.90;;;;;;4994128;28;20112;-66
2021/01/09 10:56:30;;;;;;;24.17;16.23;;;2.70;99.90;;;;;;4989140;28;20530;-66
2021/01/09 10:58:57;;;;;;;22.52;13.18;;;2.70;99.90;;;;;;5008307;28;20538;-66
2021/01/09 11:01:23;;;;;;;24.23;13.30;;;2.70;99.90;;;;;;5006458;28;20046;-66
2021/01/09 11:03:50;;;;;;;23.33;12.18;;;2.60;99.90;;;;;;5008389;28;20096;-66
2021/01/09 11:06:23;;;;;;;23.52;12.85;;;2.80;99.90;;;;;;4992954;28;20522;-67
2021/01/09 11:08:50;;;;;;;30.83;17.88;;;2.90;99.90;;;;;;4998235;28;20509;-67
2021/01/09 11:11:16;;;;;;;23.50;14.07;;;2.90;99.80;;;;;;5009446;28;20092;-67
2021/01/09 11:13:42;;;;;;;23.65;12.45;;;2.60;99.10;;;;;;5009970;28;20077;-68
2021/01/09 11:16:09;;;;;;;22.75;13.05;;;2.60;99.90;;;;;;5006662;28;20566;-67
2021/01/09 11:18:35;;;;;;;24.55;14.10;;;2.70;99.90;;;;;;5006843;28;20050;-67
2021/01/09 11:21:02;;;;;;;22.20;13.50;;;2.40;99.60;;;;;;5009325;28;20518;-67
2021/01/09 11:23:28;;;;;;;24.00;14.38;;;2.10;99.90;;;;;;5007146;28;20072;-67
2021/01/09 11:25:55;;;;;;;54.30;29.85;;;2.20;99.90;;;;;;5004469;28;20569;-67
2021/01/09 11:28:21;;;;;;;28.90;17.15;;;2.30;99.90;;;;;;5007831;28;20125;-67
2021/01/09 11:30:47;;;;;;;35.45;23.88;;;2.40;99.50;;;;;;5007797;28;20526;-67
2021/01/09 11:33:13;;;;;;;71.13;40.88;;;2.60;99.90;;;;;;5010469;28;20084;-67
2021/01/09 11:35:40;;;;;;;33.42;20.23;;;2.60;99.60;;;;;;5010693;28;20431;-67
2021/01/09 11:38:21;;;;;;;20.33;12.90;;;2.50;99.90;;;;;;5008272;28;20063;-67
2021/01/09 11:40:49;;;;;;;22.20;12.32;;;2.60;99.40;;;;;;5010770;28;20061;-65
2021/01/09 11:43:16;;;;;;;21.92;12.65;;;2.40;99.70;;;;;;5009711;28;20499;-65
2021/01/09 11:45:42;;;;;;;20.33;12.45;;;2.20;99.20;;;;;;5010172;28;20077;-65
2021/01/09 11:48:09;;;;;;;20.27;11.73;;;2.00;99.90;;;;;;5008667;28;20095;-65
2021/01/09 11:50:37;;;;;;;19.80;11.98;;;2.00;99.90;;;;;;5008547;28;20046;-65
2021/01/09 11:53:17;;;;;;;21.50;12.20;;;1.70;99.90;;;;;;4991379;28;20085;-65
2021/01/09 11:55:44;;;;;;;22.80;14.77;;;1.60;99.90;;;;;;4992105;28;20050;-65
2021/01/09 11:58:10;;;;;;;20.85;11.60;;;1.40;99.90;;;;;;5024166;28;20202;-65
2021/01/09 12:00:37;;;;;;;32.20;17.85;;;1.40;99.90;;;;;;5010392;28;20046;-66
2021/01/09 12:03:04;;;;;;;26.20;15.73;;;1.40;99.90;;;;;;5010298;28;20096;-65
2021/01/09 12:05:30;;;;;;;19.73;11.88;;;1.20;99.90;;;;;;5009927;28;20443;-65
2021/01/09 12:07:57;;;;;;;37.67;21.77;;;1.50;99.90;;;;;;4987141;28;20054;-65
2021/01/09 12:10:24;;;;;;;21.70;12.68;;;1.60;99.90;;;;;;5007295;28;20077;-65
2021/01/09 12:12:50;;;;;;;20.95;11.18;;;1.90;99.90;;;;;;5010460;28;20115;-65
2021/01/09 12:15:17;;;;;;;19.65;10.65;;;2.30;99.90;;;;;;5009877;28;20045;-66
2021/01/09 12:17:43;;;;;;;21.50;12.43;;;2.40;99.40;;;;;;5009228;28;20081;-65
2021/01/09 12:20:10;;;;;;;24.20;15.02;;;2.20;99.70;;;;;;5009041;28;20045;-66
2021/01/09 12:22:38;;;;;;;21.48;12.90;;;2.10;99.80;;;;;;5009729;28;20050;-66
2021/01/09 12:25:05;;;;;;;26.27;17.08;;;1.90;99.90;;;;;;5009612;28;20068;-66
2021/01/09 12:27:32;;;;;;;59.53;40.53;;;1.80;99.90;;;;;;5009278;28;20416;-66
2021/01/09 12:30:00;;;;;;;54.97;38.05;;;1.70;99.90;;;;;;5009332;28;20459;-66
2021/01/09 12:32:46;;;;;;;27.00;16.15;;;1.70;99.90;;;;;;5009732;28;20050;-65
2021/01/09 12:35:13;;;;;;;25.85;14.80;;;1.80;99.90;;;;;;4998067;28;20531;-65
2021/01/09 12:37:40;;;;;;;17.20;9.13;;;2.20;99.50;;;;;;5004391;28;20112;-65
2021/01/09 12:40:07;;;;;;;14.20;7.63;;;2.50;98.80;;;;;;5009368;28;20125;-65
2021/01/09 12:42:34;;;;;;;16.77;8.90;;;2.80;98.00;;;;;;4991783;28;20119;-65